sensor_id;sensor_type;location;lat;lon;timestamp;temperature;humidity
4520;DHT22;2272;49.226;8.108;2023-06-04T00:00:26;14.70;83.90
4520;DHT22;2272;49.226;8.108;2023-06-04T00:02:53;14.70;83.90
4520;DHT22;2272;49.226;8.108;2023-06-04T00:05:20;14.70;83.80
4520;DHT22;2272;49.226;8.108;2023-06-04T00:07:50;14.70;83.70
4520;DHT22;2272;49.226;8.108;2023-06-04T00:10:17;14.70;83.40
4520;DHT22;2272;49.226;8.108;2023-06-04T00:12:44;14.70;82.80
4520;DHT22;2272;49.226;8.108;2023-06-04T00:15:13;14.80;82.60
4520;DHT22;2272;49.226;8.108;2023-06-04T00:17:45;14.80;82.50
4520;DHT22;2272;49.226;8.108;2023-06-04T00:20:11;14.80;82.30
4520;DHT22;2272;49.226;8.108;2023-06-04T00:22:38;14.80;82.20
4520;DHT22;2272;49.226;8.108;2023-06-04T00:25:07;14.80;82.10
4520;DHT22;2272;49.226;8.108;2023-06-04T00:27:34;14.70;82.00
4520;DHT22;2272;49.226;8.108;2023-06-04T00:30:01;14.70;82.10
4520;DHT22;2272;49.226;8.108;2023-06-04T00:32:30;14.60;82.20
4520;DHT22;2272;49.226;8.108;2023-06-04T00:34:57;14.50;82.40
4520;DHT22;2272;49.226;8.108;2023-06-04T00:37:24;14.50;82.70
4520;DHT22;2272;49.226;8.108;2023-06-04T00:39:50;14.40;82.50
4520;DHT22;2272;49.226;8.108;2023-06-04T00:42:18;14.40;82.50
4520;DHT22;2272;49.226;8.108;2023-06-04T00:44:47;14.40;82.40
4520;DHT22;2272;49.226;8.108;2023-06-04T00:47:15;14.40;82.40
4520;DHT22;2272;49.226;8.108;2023-06-04T00:49:43;14.40;83.10
4520;DHT22;2272;49.226;8.108;2023-06-04T00:52:10;14.40;82.30
4520;DHT22;2272;49.226;8.108;2023-06-04T00:54:42;14.40;82.20
4520;DHT22;2272;49.226;8.108;2023-06-04T00:57:08;14.30;82.10
4520;DHT22;2272;49.226;8.108;2023-06-04T00:59:37;14.30;82.10
4520;DHT22;2272;49.226;8.108;2023-06-04T01:02:08;14.30;82.20
4520;DHT22;2272;49.226;8.108;2023-06-04T01:04:39;14.20;82.00
4520;DHT22;2272;49.226;8.108;2023-06-04T01:07:14;14.20;82.00
4520;DHT22;2272;49.226;8.108;2023-06-04T01:09:42;14.20;82.20
4520;DHT22;2272;49.226;8.108;2023-06-04T01:12:10;14.10;82.20
4520;DHT22;2272;49.226;8.108;2023-06-04T01:14:37;14.10;82.10
4520;DHT22;2272;49.226;8.108;2023-06-04T01:17:08;14.10;82.00
4520;DHT22;2272;49.226;8.108;2023-06-04T01:19:57;14.00;81.90
4520;DHT22;2272;49.226;8.108;2023-06-04T01:22:35;14.00;81.90
4520;DHT22;2272;49.226;8.108;2023-06-04T01:25:04;14.00;82.00
4520;DHT22;2272;49.226;8.108;2023-06-04T01:27:31;14.00;82.00
4520;DHT22;2272;49.226;8.108;2023-06-04T01:30:01;13.90;81.80
4520;DHT22;2272;49.226;8.108;2023-06-04T01:32:29;14.00;82.00
4520;DHT22;2272;49.226;8.108;2023-06-04T01:34:58;14.00;81.90
4520;DHT22;2272;49.226;8.108;2023-06-04T01:37:25;13.90;81.80
4520;DHT22;2272;49.226;8.108;2023-06-04T01:39:54;13.90;81.80
4520;DHT22;2272;49.226;8.108;2023-06-04T01:42:21;13.90;82.00
4520;DHT22;2272;49.226;8.108;2023-06-04T01:44:47;13.80;81.80
4520;DHT22;2272;49.226;8.108;2023-06-04T01:47:14;13.80;81.80
4520;DHT22;2272;49.226;8.108;2023-06-04T01:49:41;13.80;81.70
4520;DHT22;2272;49.226;8.108;2023-06-04T01:52:08;13.80;81.50
4520;DHT22;2272;49.226;8.108;2023-06-04T01:54:36;13.90;81.20
4520;DHT22;2272;49.226;8.108;2023-06-04T01:57:06;13.90;81.20
4520;DHT22;2272;49.226;8.108;2023-06-04T01:59:33;13.80;81.10
4520;DHT22;2272;49.226;8.108;2023-06-04T02:02:02;13.80;81.30
4520;DHT22;2272;49.226;8.108;2023-06-04T02:04:29;13.70;81.30
4520;DHT22;2272;49.226;8.108;2023-06-04T02:06:56;13.70;81.50
4520;DHT22;2272;49.226;8.108;2023-06-04T02:09:24;13.60;81.80
4520;DHT22;2272;49.226;8.108;2023-06-04T02:11:51;13.50;82.20
4520;DHT22;2272;49.226;8.108;2023-06-04T02:14:19;13.40;82.20
4520;DHT22;2272;49.226;8.108;2023-06-04T02:16:46;13.40;82.40
4520;DHT22;2272;49.226;8.108;2023-06-04T02:19:15;13.30;82.50
4520;DHT22;2272;49.226;8.108;2023-06-04T02:21:44;13.30;82.50
4520;DHT22;2272;49.226;8.108;2023-06-04T02:24:10;13.30;82.60
4520;DHT22;2272;49.226;8.108;2023-06-04T02:26:37;13.20;83.10
4520;DHT22;2272;49.226;8.108;2023-06-04T02:29:04;13.10;83.80
4520;DHT22;2272;49.226;8.108;2023-06-04T02:31:32;13.00;84.40
4520;DHT22;2272;49.226;8.108;2023-06-04T02:33:58;12.90;84.60
4520;DHT22;2272;49.226;8.108;2023-06-04T02:36:25;12.90;84.60
4520;DHT22;2272;49.226;8.108;2023-06-04T02:38:52;12.90;84.80
4520;DHT22;2272;49.226;8.108;2023-06-04T02:41:18;12.80;84.90
4520;DHT22;2272;49.226;8.108;2023-06-04T02:43:45;12.80;85.10
4520;DHT22;2272;49.226;8.108;2023-06-04T02:46:12;12.80;85.10
4520;DHT22;2272;49.226;8.108;2023-06-04T02:48:40;12.70;85.60
4520;DHT22;2272;49.226;8.108;2023-06-04T02:51:07;12.70;86.00
4520;DHT22;2272;49.226;8.108;2023-06-04T02:53:35;12.60;86.40
4520;DHT22;2272;49.226;8.108;2023-06-04T02:56:02;12.60;86.50
4520;DHT22;2272;49.226;8.108;2023-06-04T02:58:29;12.50;86.70
4520;DHT22;2272;49.226;8.108;2023-06-04T03:00:57;12.50;87.00
4520;DHT22;2272;49.226;8.108;2023-06-04T03:03:23;12.40;87.00
4520;DHT22;2272;49.226;8.108;2023-06-04T03:05:51;12.30;87.00
4520;DHT22;2272;49.226;8.108;2023-06-04T03:08:19;12.20;87.20
4520;DHT22;2272;49.226;8.108;2023-06-04T03:10:46;12.20;87.50
4520;DHT22;2272;49.226;8.108;2023-06-04T03:13:13;12.10;87.50
4520;DHT22;2272;49.226;8.108;2023-06-04T03:15:40;12.10;87.50
4520;DHT22;2272;49.226;8.108;2023-06-04T03:18:07;12.10;87.70
4520;DHT22;2272;49.226;8.108;2023-06-04T03:20:34;12.10;87.60
4520;DHT22;2272;49.226;8.108;2023-06-04T03:23:04;12.10;87.40
4520;DHT22;2272;49.226;8.108;2023-06-04T03:25:31;12.10;87.50
4520;DHT22;2272;49.226;8.108;2023-06-04T03:27:58;12.10;87.70
4520;DHT22;2272;49.226;8.108;2023-06-04T03:30:25;12.00;87.80
4520;DHT22;2272;49.226;8.108;2023-06-04T03:32:51;12.00;88.00
4520;DHT22;2272;49.226;8.108;2023-06-04T03:35:18;11.90;87.90
4520;DHT22;2272;49.226;8.108;2023-06-04T03:37:45;12.00;87.90
4520;DHT22;2272;49.226;8.108;2023-06-04T03:40:13;11.90;87.90
4520;DHT22;2272;49.226;8.108;2023-06-04T03:42:40;12.00;87.90
4520;DHT22;2272;49.226;8.108;2023-06-04T03:45:08;12.00;88.10
4520;DHT22;2272;49.226;8.108;2023-06-04T03:47:35;12.00;88.10
4520;DHT22;2272;49.226;8.108;2023-06-04T03:50:02;12.00;88.30
4520;DHT22;2272;49.226;8.108;2023-06-04T03:52:28;12.00;88.50
4520;DHT22;2272;49.226;8.108;2023-06-04T03:54:55;12.00;88.70
4520;DHT22;2272;49.226;8.108;2023-06-04T03:57:23;12.00;88.60
4520;DHT22;2272;49.226;8.108;2023-06-04T03:59:50;12.00;88.50
4520;DHT22;2272;49.226;8.108;2023-06-04T04:02:17;12.00;88.50
4520;DHT22;2272;49.226;8.108;2023-06-04T04:04:44;12.00;88.50
4520;DHT22;2272;49.226;8.108;2023-06-04T04:07:11;12.10;88.50
4520;DHT22;2272;49.226;8.108;2023-06-04T04:09:37;12.10;88.20
4520;DHT22;2272;49.226;8.108;2023-06-04T04:12:05;12.10;88.10
4520;DHT22;2272;49.226;8.108;2023-06-04T04:14:33;12.20;88.10
4520;DHT22;2272;49.226;8.108;2023-06-04T04:17:00;12.30;88.10
4520;DHT22;2272;49.226;8.108;2023-06-04T04:19:26;12.30;88.00
4520;DHT22;2272;49.226;8.108;2023-06-04T04:21:54;12.40;87.90
4520;DHT22;2272;49.226;8.108;2023-06-04T04:24:23;12.50;87.80
4520;DHT22;2272;49.226;8.108;2023-06-04T04:26:50;12.50;87.50
4520;DHT22;2272;49.226;8.108;2023-06-04T04:29:19;12.60;87.30
4520;DHT22;2272;49.226;8.108;2023-06-04T04:31:49;12.70;87.10
4520;DHT22;2272;49.226;8.108;2023-06-04T04:34:16;12.70;87.00
4520;DHT22;2272;49.226;8.108;2023-06-04T04:36:46;12.90;87.00
4520;DHT22;2272;49.226;8.108;2023-06-04T04:39:18;12.90;87.10
4520;DHT22;2272;49.226;8.108;2023-06-04T04:41:46;13.00;87.30
4520;DHT22;2272;49.226;8.108;2023-06-04T04:44:12;13.00;87.00
4520;DHT22;2272;49.226;8.108;2023-06-04T04:46:39;13.10;86.80
4520;DHT22;2272;49.226;8.108;2023-06-04T04:49:07;13.20;86.40
4520;DHT22;2272;49.226;8.108;2023-06-04T04:51:34;13.30;86.30
4520;DHT22;2272;49.226;8.108;2023-06-04T04:54:02;13.40;85.80
4520;DHT22;2272;49.226;8.108;2023-06-04T04:56:29;13.50;85.70
4520;DHT22;2272;49.226;8.108;2023-06-04T04:58:55;13.60;85.40
4520;DHT22;2272;49.226;8.108;2023-06-04T05:01:22;13.70;85.10
4520;DHT22;2272;49.226;8.108;2023-06-04T05:03:50;13.80;84.60
4520;DHT22;2272;49.226;8.108;2023-06-04T05:06:18;14.00;84.50
4520;DHT22;2272;49.226;8.108;2023-06-04T05:08:45;14.10;84.40
4520;DHT22;2272;49.226;8.108;2023-06-04T05:11:12;14.20;84.00
4520;DHT22;2272;49.226;8.108;2023-06-04T05:13:39;14.30;83.70
4520;DHT22;2272;49.226;8.108;2023-06-04T05:16:07;14.40;82.80
4520;DHT22;2272;49.226;8.108;2023-06-04T05:18:33;14.50;82.80
4520;DHT22;2272;49.226;8.108;2023-06-04T05:21:00;14.60;82.50
4520;DHT22;2272;49.226;8.108;2023-06-04T05:23:29;14.70;81.80
4520;DHT22;2272;49.226;8.108;2023-06-04T05:25:57;14.80;81.00
4520;DHT22;2272;49.226;8.108;2023-06-04T05:28:25;15.20;80.60
4520;DHT22;2272;49.226;8.108;2023-06-04T05:30:52;15.90;80.20
4520;DHT22;2272;49.226;8.108;2023-06-04T05:33:25;16.50;79.00
4520;DHT22;2272;49.226;8.108;2023-06-04T05:35:52;17.10;77.80
4520;DHT22;2272;49.226;8.108;2023-06-04T05:38:19;17.50;76.80
4520;DHT22;2272;49.226;8.108;2023-06-04T05:40:54;17.60;75.40
4520;DHT22;2272;49.226;8.108;2023-06-04T05:43:21;17.80;75.20
4520;DHT22;2272;49.226;8.108;2023-06-04T05:45:48;17.90;75.00
4520;DHT22;2272;49.226;8.108;2023-06-04T05:48:16;17.80;73.70
4520;DHT22;2272;49.226;8.108;2023-06-04T05:50:43;17.80;73.70
4520;DHT22;2272;49.226;8.108;2023-06-04T05:53:10;17.60;73.40
4520;DHT22;2272;49.226;8.108;2023-06-04T05:55:37;17.60;74.40
4520;DHT22;2272;49.226;8.108;2023-06-04T05:58:05;17.60;74.40
4520;DHT22;2272;49.226;8.108;2023-06-04T06:00:32;17.50;73.80
4520;DHT22;2272;49.226;8.108;2023-06-04T06:03:00;17.50;73.80
4520;DHT22;2272;49.226;8.108;2023-06-04T06:05:27;17.50;73.80
4520;DHT22;2272;49.226;8.108;2023-06-04T06:07:54;17.60;73.00
4520;DHT22;2272;49.226;8.108;2023-06-04T06:10:21;17.50;73.20
4520;DHT22;2272;49.226;8.108;2023-06-04T06:12:48;17.70;73.50
4520;DHT22;2272;49.226;8.108;2023-06-04T06:15:16;17.70;73.00
4520;DHT22;2272;49.226;8.108;2023-06-04T06:17:43;17.80;72.20
4520;DHT22;2272;49.226;8.108;2023-06-04T06:20:10;18.00;71.50
4520;DHT22;2272;49.226;8.108;2023-06-04T06:22:37;18.00;71.00
4520;DHT22;2272;49.226;8.108;2023-06-04T06:25:04;17.90;70.40
4520;DHT22;2272;49.226;8.108;2023-06-04T06:27:32;17.70;70.20
4520;DHT22;2272;49.226;8.108;2023-06-04T06:29:58;17.60;71.20
4520;DHT22;2272;49.226;8.108;2023-06-04T06:32:26;17.70;72.50
4520;DHT22;2272;49.226;8.108;2023-06-04T06:34:53;17.80;72.10
4520;DHT22;2272;49.226;8.108;2023-06-04T06:37:21;17.80;71.60
4520;DHT22;2272;49.226;8.108;2023-06-04T06:39:47;17.90;71.90
4520;DHT22;2272;49.226;8.108;2023-06-04T06:42:14;17.80;70.70
4520;DHT22;2272;49.226;8.108;2023-06-04T06:44:43;17.80;71.40
4520;DHT22;2272;49.226;8.108;2023-06-04T06:47:10;17.80;71.80
4520;DHT22;2272;49.226;8.108;2023-06-04T06:49:40;17.90;71.70
4520;DHT22;2272;49.226;8.108;2023-06-04T06:52:07;18.00;71.70
4520;DHT22;2272;49.226;8.108;2023-06-04T06:54:33;18.00;72.00
4520;DHT22;2272;49.226;8.108;2023-06-04T06:57:00;18.20;72.20
4520;DHT22;2272;49.226;8.108;2023-06-04T06:59:28;18.30;71.30
4520;DHT22;2272;49.226;8.108;2023-06-04T07:01:55;18.40;72.30
4520;DHT22;2272;49.226;8.108;2023-06-04T07:04:22;18.50;70.60
4520;DHT22;2272;49.226;8.108;2023-06-04T07:06:50;18.50;70.50
4520;DHT22;2272;49.226;8.108;2023-06-04T07:09:16;18.50;70.90
4520;DHT22;2272;49.226;8.108;2023-06-04T07:11:43;18.70;71.90
4520;DHT22;2272;49.226;8.108;2023-06-04T07:14:10;18.80;69.20
4520;DHT22;2272;49.226;8.108;2023-06-04T07:16:37;18.70;69.00
4520;DHT22;2272;49.226;8.108;2023-06-04T07:19:03;18.80;69.70
4520;DHT22;2272;49.226;8.108;2023-06-04T07:21:30;18.80;70.20
4520;DHT22;2272;49.226;8.108;2023-06-04T07:23:58;18.80;71.10
4520;DHT22;2272;49.226;8.108;2023-06-04T07:26:25;18.90;68.90
4520;DHT22;2272;49.226;8.108;2023-06-04T07:28:55;19.00;69.30
4520;DHT22;2272;49.226;8.108;2023-06-04T07:31:22;19.00;68.30
4520;DHT22;2272;49.226;8.108;2023-06-04T07:33:49;19.10;68.70
4520;DHT22;2272;49.226;8.108;2023-06-04T07:36:16;19.10;69.20
4520;DHT22;2272;49.226;8.108;2023-06-04T07:38:43;19.30;68.60
4520;DHT22;2272;49.226;8.108;2023-06-04T07:41:11;19.40;68.80
4520;DHT22;2272;49.226;8.108;2023-06-04T07:43:38;19.50;68.40
4520;DHT22;2272;49.226;8.108;2023-06-04T07:46:05;19.70;68.70
4520;DHT22;2272;49.226;8.108;2023-06-04T07:48:32;19.70;68.70
4520;DHT22;2272;49.226;8.108;2023-06-04T07:51:00;19.80;67.90
4520;DHT22;2272;49.226;8.108;2023-06-04T07:53:27;19.90;68.90
4520;DHT22;2272;49.226;8.108;2023-06-04T07:55:54;20.00;68.40
4520;DHT22;2272;49.226;8.108;2023-06-04T07:58:22;20.10;68.90
4520;DHT22;2272;49.226;8.108;2023-06-04T08:00:49;20.10;69.30
4520;DHT22;2272;49.226;8.108;2023-06-04T08:03:17;20.30;69.70
4520;DHT22;2272;49.226;8.108;2023-06-04T08:05:46;20.40;69.10
4520;DHT22;2272;49.226;8.108;2023-06-04T08:08:12;20.50;69.30
4520;DHT22;2272;49.226;8.108;2023-06-04T08:10:39;20.50;68.50
4520;DHT22;2272;49.226;8.108;2023-06-04T08:13:06;20.60;68.50
4520;DHT22;2272;49.226;8.108;2023-06-04T08:15:35;20.70;69.40
4520;DHT22;2272;49.226;8.108;2023-06-04T08:18:02;20.90;69.30
4520;DHT22;2272;49.226;8.108;2023-06-04T08:20:29;21.00;69.00
4520;DHT22;2272;49.226;8.108;2023-06-04T08:22:55;20.90;68.70
4520;DHT22;2272;49.226;8.108;2023-06-04T08:25:22;20.90;69.50
4520;DHT22;2272;49.226;8.108;2023-06-04T08:27:49;20.90;70.00
4520;DHT22;2272;49.226;8.108;2023-06-04T08:30:15;21.00;70.40
4520;DHT22;2272;49.226;8.108;2023-06-04T08:32:44;21.10;69.50
4520;DHT22;2272;49.226;8.108;2023-06-04T08:35:11;21.30;69.90
4520;DHT22;2272;49.226;8.108;2023-06-04T08:37:37;21.30;69.90
4520;DHT22;2272;49.226;8.108;2023-06-04T08:40:05;21.40;70.60
4520;DHT22;2272;49.226;8.108;2023-06-04T08:42:38;21.50;70.70
4520;DHT22;2272;49.226;8.108;2023-06-04T08:45:10;21.50;69.40
4520;DHT22;2272;49.226;8.108;2023-06-04T08:47:40;21.70;70.30
4520;DHT22;2272;49.226;8.108;2023-06-04T08:50:12;21.90;69.80
4520;DHT22;2272;49.226;8.108;2023-06-04T08:52:40;21.90;68.50
4520;DHT22;2272;49.226;8.108;2023-06-04T08:55:08;22.00;68.70
4520;DHT22;2272;49.226;8.108;2023-06-04T08:57:39;22.00;69.30
4520;DHT22;2272;49.226;8.108;2023-06-04T09:00:06;22.10;68.80
4520;DHT22;2272;49.226;8.108;2023-06-04T09:02:35;22.10;70.10
4520;DHT22;2272;49.226;8.108;2023-06-04T09:05:03;22.20;70.50
4520;DHT22;2272;49.226;8.108;2023-06-04T09:07:35;22.30;69.80
4520;DHT22;2272;49.226;8.108;2023-06-04T09:10:02;22.60;69.60
4520;DHT22;2272;49.226;8.108;2023-06-04T09:12:30;22.70;69.00
4520;DHT22;2272;49.226;8.108;2023-06-04T09:14:58;22.60;68.10
4520;DHT22;2272;49.226;8.108;2023-06-04T09:17:25;22.30;68.90
4520;DHT22;2272;49.226;8.108;2023-06-04T09:19:52;22.30;69.00
4520;DHT22;2272;49.226;8.108;2023-06-04T09:22:19;22.30;69.80
4520;DHT22;2272;49.226;8.108;2023-06-04T09:24:50;22.40;69.80
4520;DHT22;2272;49.226;8.108;2023-06-04T09:27:19;22.40;69.90
4520;DHT22;2272;49.226;8.108;2023-06-04T09:29:51;22.50;70.50
4520;DHT22;2272;49.226;8.108;2023-06-04T09:32:21;22.80;70.70
4520;DHT22;2272;49.226;8.108;2023-06-04T09:34:48;22.90;69.00
4520;DHT22;2272;49.226;8.108;2023-06-04T09:37:16;22.90;68.20
4520;DHT22;2272;49.226;8.108;2023-06-04T09:39:43;22.90;68.60
4520;DHT22;2272;49.226;8.108;2023-06-04T09:42:12;23.10;68.40
4520;DHT22;2272;49.226;8.108;2023-06-04T09:44:43;23.20;68.70
4520;DHT22;2272;49.226;8.108;2023-06-04T09:47:11;23.20;67.30
4520;DHT22;2272;49.226;8.108;2023-06-04T09:49:40;23.20;67.70
4520;DHT22;2272;49.226;8.108;2023-06-04T09:52:07;23.10;68.50
4520;DHT22;2272;49.226;8.108;2023-06-04T09:54:35;23.40;69.20
4520;DHT22;2272;49.226;8.108;2023-06-04T09:57:03;23.60;66.70
4520;DHT22;2272;49.226;8.108;2023-06-04T09:59:38;23.70;66.70
4520;DHT22;2272;49.226;8.108;2023-06-04T10:02:09;23.70;67.30
4520;DHT22;2272;49.226;8.108;2023-06-04T10:04:41;23.90;65.40
4520;DHT22;2272;49.226;8.108;2023-06-04T10:07:09;24.00;64.80
4520;DHT22;2272;49.226;8.108;2023-06-04T10:09:38;24.20;64.40
4520;DHT22;2272;49.226;8.108;2023-06-04T10:12:11;24.50;64.30
4520;DHT22;2272;49.226;8.108;2023-06-04T10:14:44;24.50;63.50
4520;DHT22;2272;49.226;8.108;2023-06-04T10:17:12;24.50;63.20
4520;DHT22;2272;49.226;8.108;2023-06-04T10:19:43;24.50;64.30
4520;DHT22;2272;49.226;8.108;2023-06-04T10:22:10;24.60;65.00
4520;DHT22;2272;49.226;8.108;2023-06-04T10:24:38;24.70;63.50
4520;DHT22;2272;49.226;8.108;2023-06-04T10:27:06;24.70;64.10
4520;DHT22;2272;49.226;8.108;2023-06-04T10:29:36;24.70;64.10
4520;DHT22;2272;49.226;8.108;2023-06-04T10:32:04;24.80;64.20
4520;DHT22;2272;49.226;8.108;2023-06-04T10:34:32;24.90;65.10
4520;DHT22;2272;49.226;8.108;2023-06-04T10:36:59;25.00;64.60
4520;DHT22;2272;49.226;8.108;2023-06-04T10:39:26;25.20;64.20
4520;DHT22;2272;49.226;8.108;2023-06-04T10:41:58;25.10;62.80
4520;DHT22;2272;49.226;8.108;2023-06-04T10:44:25;25.00;62.00
4520;DHT22;2272;49.226;8.108;2023-06-04T10:46:52;25.00;64.40
4520;DHT22;2272;49.226;8.108;2023-06-04T10:49:27;25.10;64.60
4520;DHT22;2272;49.226;8.108;2023-06-04T10:51:54;25.40;63.30
4520;DHT22;2272;49.226;8.108;2023-06-04T10:54:23;25.40;61.00
4520;DHT22;2272;49.226;8.108;2023-06-04T10:56:51;25.40;62.00
4520;DHT22;2272;49.226;8.108;2023-06-04T10:59:18;25.50;64.70
4520;DHT22;2272;49.226;8.108;2023-06-04T11:01:45;25.80;63.40
4520;DHT22;2272;49.226;8.108;2023-06-04T11:04:20;25.90;61.60
4520;DHT22;2272;49.226;8.108;2023-06-04T11:06:48;26.00;61.50
4520;DHT22;2272;49.226;8.108;2023-06-04T11:09:26;25.90;61.00
4520;DHT22;2272;49.226;8.108;2023-06-04T11:11:57;26.00;61.70
4520;DHT22;2272;49.226;8.108;2023-06-04T11:14:24;25.90;61.00
4520;DHT22;2272;49.226;8.108;2023-06-04T11:16:50;25.90;60.00
4520;DHT22;2272;49.226;8.108;2023-06-04T11:19:17;25.80;59.10
4520;DHT22;2272;49.226;8.108;2023-06-04T11:21:44;25.90;59.90
4520;DHT22;2272;49.226;8.108;2023-06-04T11:24:13;26.20;58.50
4520;DHT22;2272;49.226;8.108;2023-06-04T11:26:40;26.30;60.00
4520;DHT22;2272;49.226;8.108;2023-06-04T11:29:08;26.40;59.30
4520;DHT22;2272;49.226;8.108;2023-06-04T11:31:46;26.50;59.00
4520;DHT22;2272;49.226;8.108;2023-06-04T11:34:22;26.50;58.00
4520;DHT22;2272;49.226;8.108;2023-06-04T11:36:49;26.40;58.30
4520;DHT22;2272;49.226;8.108;2023-06-04T11:39:20;26.30;58.40
4520;DHT22;2272;49.226;8.108;2023-06-04T11:41:47;26.50;58.90
4520;DHT22;2272;49.226;8.108;2023-06-04T11:44:13;26.70;58.20
4520;DHT22;2272;49.226;8.108;2023-06-04T11:46:41;26.90;57.60
4520;DHT22;2272;49.226;8.108;2023-06-04T11:49:11;27.00;57.80
4520;DHT22;2272;49.226;8.108;2023-06-04T11:51:38;27.20;57.30
4520;DHT22;2272;49.226;8.108;2023-06-04T11:54:05;27.40;56.90
4520;DHT22;2272;49.226;8.108;2023-06-04T11:56:33;27.50;55.70
4520;DHT22;2272;49.226;8.108;2023-06-04T11:59:00;27.50;56.70
4520;DHT22;2272;49.226;8.108;2023-06-04T12:01:27;27.50;57.40
4520;DHT22;2272;49.226;8.108;2023-06-04T12:03:55;27.30;56.80
4520;DHT22;2272;49.226;8.108;2023-06-04T12:06:22;27.10;57.30
4520;DHT22;2272;49.226;8.108;2023-06-04T12:08:50;27.10;57.30
4520;DHT22;2272;49.226;8.108;2023-06-04T12:11:25;26.90;57.30
4520;DHT22;2272;49.226;8.108;2023-06-04T12:13:53;26.80;56.90
4520;DHT22;2272;49.226;8.108;2023-06-04T12:16:20;27.00;57.80
4520;DHT22;2272;49.226;8.108;2023-06-04T12:18:47;27.30;57.00
4520;DHT22;2272;49.226;8.108;2023-06-04T12:21:20;27.30;56.60
4520;DHT22;2272;49.226;8.108;2023-06-04T12:24:05;27.20;57.60
4520;DHT22;2272;49.226;8.108;2023-06-04T12:26:32;27.00;57.30
4520;DHT22;2272;49.226;8.108;2023-06-04T12:29:07;26.90;56.70
4520;DHT22;2272;49.226;8.108;2023-06-04T12:31:35;27.10;57.50
4520;DHT22;2272;49.226;8.108;2023-06-04T12:34:02;27.40;56.90
4520;DHT22;2272;49.226;8.108;2023-06-04T12:36:29;27.20;57.70
4520;DHT22;2272;49.226;8.108;2023-06-04T12:39:00;27.20;56.90
4520;DHT22;2272;49.226;8.108;2023-06-04T12:41:28;27.10;57.60
4520;DHT22;2272;49.226;8.108;2023-06-04T12:43:55;27.20;57.40
4520;DHT22;2272;49.226;8.108;2023-06-04T12:46:24;27.20;56.50
4520;DHT22;2272;49.226;8.108;2023-06-04T12:48:51;27.20;56.70
4520;DHT22;2272;49.226;8.108;2023-06-04T12:51:18;27.30;57.40
4520;DHT22;2272;49.226;8.108;2023-06-04T12:53:46;27.40;56.30
4520;DHT22;2272;49.226;8.108;2023-06-04T12:56:13;27.40;55.80
4520;DHT22;2272;49.226;8.108;2023-06-04T12:58:40;27.30;55.70
4520;DHT22;2272;49.226;8.108;2023-06-04T13:01:07;27.30;56.40
4520;DHT22;2272;49.226;8.108;2023-06-04T13:03:36;27.40;56.30
4520;DHT22;2272;49.226;8.108;2023-06-04T13:06:04;27.20;55.80
4520;DHT22;2272;49.226;8.108;2023-06-04T13:08:31;27.00;55.70
4520;DHT22;2272;49.226;8.108;2023-06-04T13:10:58;26.90;55.70
4520;DHT22;2272;49.226;8.108;2023-06-04T13:13:25;27.00;56.20
4520;DHT22;2272;49.226;8.108;2023-06-04T13:15:52;27.30;55.60
4520;DHT22;2272;49.226;8.108;2023-06-04T13:18:18;27.40;55.20
4520;DHT22;2272;49.226;8.108;2023-06-04T13:20:47;27.50;55.30
4520;DHT22;2272;49.226;8.108;2023-06-04T13:23:14;27.60;55.70
4520;DHT22;2272;49.226;8.108;2023-06-04T13:25:41;27.70;55.40
4520;DHT22;2272;49.226;8.108;2023-06-04T13:28:08;27.90;55.80
4520;DHT22;2272;49.226;8.108;2023-06-04T13:30:35;27.90;54.90
4520;DHT22;2272;49.226;8.108;2023-06-04T13:33:02;27.90;55.20
4520;DHT22;2272;49.226;8.108;2023-06-04T13:35:29;27.80;54.20
4520;DHT22;2272;49.226;8.108;2023-06-04T13:37:57;27.80;53.90
4520;DHT22;2272;49.226;8.108;2023-06-04T13:40:24;27.80;55.30
4520;DHT22;2272;49.226;8.108;2023-06-04T13:42:51;28.10;54.20
4520;DHT22;2272;49.226;8.108;2023-06-04T13:45:17;28.30;54.40
4520;DHT22;2272;49.226;8.108;2023-06-04T13:47:45;28.40;53.80
4520;DHT22;2272;49.226;8.108;2023-06-04T13:50:12;28.40;55.20
4520;DHT22;2272;49.226;8.108;2023-06-04T13:52:39;28.40;52.30
4520;DHT22;2272;49.226;8.108;2023-06-04T13:55:07;28.10;52.30
4520;DHT22;2272;49.226;8.108;2023-06-04T13:57:34;28.00;52.80
4520;DHT22;2272;49.226;8.108;2023-06-04T14:00:01;27.80;53.10
4520;DHT22;2272;49.226;8.108;2023-06-04T14:02:28;27.50;54.10
4520;DHT22;2272;49.226;8.108;2023-06-04T14:04:55;27.60;52.80
4520;DHT22;2272;49.226;8.108;2023-06-04T14:07:22;27.60;52.70
4520;DHT22;2272;49.226;8.108;2023-06-04T14:09:50;27.40;51.70
4520;DHT22;2272;49.226;8.108;2023-06-04T14:12:21;27.20;52.20
4520;DHT22;2272;49.226;8.108;2023-06-04T14:14:48;27.00;52.60
4520;DHT22;2272;49.226;8.108;2023-06-04T14:17:15;27.00;51.70
4520;DHT22;2272;49.226;8.108;2023-06-04T14:19:42;27.00;52.50
4520;DHT22;2272;49.226;8.108;2023-06-04T14:22:09;26.90;52.80
4520;DHT22;2272;49.226;8.108;2023-06-04T14:24:36;26.80;52.50
4520;DHT22;2272;49.226;8.108;2023-06-04T14:27:03;26.70;52.60
4520;DHT22;2272;49.226;8.108;2023-06-04T14:29:34;26.80;53.20
4520;DHT22;2272;49.226;8.108;2023-06-04T14:32:01;27.00;52.30
4520;DHT22;2272;49.226;8.108;2023-06-04T14:34:29;27.30;53.10
4520;DHT22;2272;49.226;8.108;2023-06-04T14:36:57;27.20;51.70
4520;DHT22;2272;49.226;8.108;2023-06-04T14:39:25;27.10;52.20
4520;DHT22;2272;49.226;8.108;2023-06-04T14:41:52;27.10;52.50
4520;DHT22;2272;49.226;8.108;2023-06-04T14:44:19;27.00;51.80
4520;DHT22;2272;49.226;8.108;2023-06-04T14:46:48;26.90;52.60
4520;DHT22;2272;49.226;8.108;2023-06-04T14:49:15;26.70;52.30
4520;DHT22;2272;49.226;8.108;2023-06-04T14:51:42;26.70;52.70
4520;DHT22;2272;49.226;8.108;2023-06-04T14:54:09;26.70;52.20
4520;DHT22;2272;49.226;8.108;2023-06-04T14:56:35;26.70;53.30
4520;DHT22;2272;49.226;8.108;2023-06-04T14:59:02;26.70;51.70
4520;DHT22;2272;49.226;8.108;2023-06-04T15:01:34;26.60;52.20
4520;DHT22;2272;49.226;8.108;2023-06-04T15:04:02;26.60;52.00
4520;DHT22;2272;49.226;8.108;2023-06-04T15:06:29;26.70;51.40
4520;DHT22;2272;49.226;8.108;2023-06-04T15:08:56;26.70;52.60
4520;DHT22;2272;49.226;8.108;2023-06-04T15:11:22;26.90;52.00
4520;DHT22;2272;49.226;8.108;2023-06-04T15:13:49;26.80;51.40
4520;DHT22;2272;49.226;8.108;2023-06-04T15:16:16;26.70;51.30
4520;DHT22;2272;49.226;8.108;2023-06-04T15:18:43;26.50;52.20
4520;DHT22;2272;49.226;8.108;2023-06-04T15:21:11;26.50;51.30
4520;DHT22;2272;49.226;8.108;2023-06-04T15:23:38;26.40;51.70
4520;DHT22;2272;49.226;8.108;2023-06-04T15:26:05;26.50;52.10
4520;DHT22;2272;49.226;8.108;2023-06-04T15:28:31;26.50;52.50
4520;DHT22;2272;49.226;8.108;2023-06-04T15:30:58;26.50;51.00
4520;DHT22;2272;49.226;8.108;2023-06-04T15:33:25;26.30;51.30
4520;DHT22;2272;49.226;8.108;2023-06-04T15:35:51;26.30;51.30
4520;DHT22;2272;49.226;8.108;2023-06-04T15:38:19;26.30;51.20
4520;DHT22;2272;49.226;8.108;2023-06-04T15:40:46;26.10;50.80
4520;DHT22;2272;49.226;8.108;2023-06-04T15:43:13;26.00;51.20
4520;DHT22;2272;49.226;8.108;2023-06-04T15:45:41;26.10;51.50
4520;DHT22;2272;49.226;8.108;2023-06-04T15:48:10;26.20;51.30
4520;DHT22;2272;49.226;8.108;2023-06-04T15:50:36;26.20;50.40
4520;DHT22;2272;49.226;8.108;2023-06-04T15:53:03;26.20;50.90
4520;DHT22;2272;49.226;8.108;2023-06-04T15:55:32;26.30;51.20
4520;DHT22;2272;49.226;8.108;2023-06-04T15:57:59;26.10;50.50
4520;DHT22;2272;49.226;8.108;2023-06-04T16:00:25;26.00;51.00
4520;DHT22;2272;49.226;8.108;2023-06-04T16:02:52;25.90;50.80
4520;DHT22;2272;49.226;8.108;2023-06-04T16:05:19;25.90;50.90